Accueil
METAR-TAF:

METAR-TAF

Aéroports :

Mykolaïv, Ukraine

latitude: 47-03-29N, longitude: 031-55-15E, altitude: 56 m

Observation

Le bulletin a été fait il y a 19 minutes, à 08:00 UTC
Vent 2 kt de direction variable
Température 17°C
Humidité 39%
Pression 1029 hPa
Visibilité 10 km ou plus
pas de nuages en-dessous de 1500 mètres et pas de cumulonimbus.

METAR: UKON 230800Z VRB01MPS CAVOK 17/03 Q1029 R04/090068 NOSIG

Heure: 11:19 (08:19 UTC)

Prévision

Le bulletin a été fait il y a 3 heures et 16 minutes, à 05:03 UTC
Prévision valable du 23 à 06 UTC au 23 à 15 UTC
Vent 6 kt de est/sud-est
Visibilité 10 km ou plus
Nuages épars à une hauteur de 2500 ft, Cumulonimbus.

TAF: UKON 230503Z 2306/2315 12003MPS 9999 SCT025CB

Observations et prévisions météorologiques de plus de 4000 aéroports (messages METAR et TAF).

Les stations disponibles sont représentées par des disques jaunes et rouges sur la carte.

Passer la souris dessus pour voir le nom de la station.

Cliquer dessus pour voir les observations et prévisions météorologiques.

Pour changer de carte: cliquez sur les boutons verts avec une croix noire pour zoomer, sur le bouton vert avec un tiret pour effectuer un zoom arrière, ou sur les flèches vertes pour les cartes adjacentes.


METAR-TAF: